createdAt,value
2018-12-15T00:00:37.905Z,0
2018-12-15T00:01:40.227Z,0
2018-12-15T00:02:42.262Z,0
2018-12-15T00:03:44.346Z,0
2018-12-15T00:04:46.374Z,0
2018-12-15T00:05:48.688Z,0
2018-12-15T00:06:50.693Z,0
2018-12-15T00:07:52.725Z,0
2018-12-15T00:08:54.745Z,0
2018-12-15T00:09:56.779Z,0
2018-12-15T00:10:58.791Z,0
2018-12-15T00:12:01.103Z,0
2018-12-15T00:13:03.129Z,0
2018-12-15T00:14:05.144Z,0
2018-12-15T00:15:07.183Z,0
2018-12-15T00:16:09.473Z,0
2018-12-15T00:17:11.506Z,0
2018-12-15T00:18:13.527Z,0
2018-12-15T00:19:15.561Z,0
2018-12-15T00:20:17.583Z,0
2018-12-15T00:21:19.899Z,0
2018-12-15T00:22:21.927Z,0
2018-12-15T00:23:24.223Z,0
2018-12-15T00:24:26.258Z,0
2018-12-15T00:25:28.285Z,0
2018-12-15T00:26:30.579Z,0
2018-12-15T00:27:32.885Z,0
2018-12-15T00:28:34.912Z,0
2018-12-15T00:29:37.327Z,0
2018-12-15T00:30:39.623Z,0
2018-12-15T00:31:41.932Z,0
2018-12-15T00:32:43.970Z,0
2018-12-15T00:33:46.000Z,0
2018-12-15T00:34:48.014Z,0
2018-12-15T00:35:50.048Z,0
2018-12-15T00:36:52.072Z,0
2018-12-15T00:37:54.102Z,0
2018-12-15T00:38:56.133Z,0
2018-12-15T00:39:58.145Z,0
2018-12-15T00:41:00.168Z,0
2018-12-15T00:42:02.198Z,0
2018-12-15T00:43:04.223Z,0
2018-12-15T00:44:06.628Z,0
2018-12-15T00:45:09.996Z,0
2018-12-15T00:46:14.002Z,0
2018-12-15T00:47:16.022Z,0
2018-12-15T00:48:18.210Z,0
2018-12-15T00:49:22.612Z,0
2018-12-15T00:50:24.637Z,0
2018-12-15T00:51:26.651Z,0
2018-12-15T00:52:29.137Z,0
2018-12-15T00:53:38.546Z,0
2018-12-15T00:54:40.566Z,0
2018-12-15T00:55:42.595Z,0
2018-12-15T00:56:44.602Z,0
2018-12-15T00:57:46.640Z,0
2018-12-15T00:58:48.680Z,0
2018-12-15T00:59:50.694Z,0
2018-12-15T01:00:52.716Z,0
2018-12-15T01:01:54.752Z,0
2018-12-15T01:02:56.776Z,0
2018-12-15T01:03:58.871Z,0
2018-12-15T01:05:00.897Z,0
2018-12-15T01:06:03.593Z,0
2018-12-15T01:07:07.227Z,0
2018-12-15T01:08:12.405Z,0
2018-12-15T01:09:14.419Z,0
2018-12-15T01:10:16.453Z,0
2018-12-15T01:11:18.476Z,0
2018-12-15T01:12:20.878Z,0
2018-12-15T01:13:22.912Z,0
2018-12-15T01:14:24.931Z,0
2018-12-15T01:15:27.231Z,0
2018-12-15T01:16:29.628Z,0
2018-12-15T01:17:31.655Z,0
2018-12-15T01:18:33.955Z,0
2018-12-15T01:19:35.980Z,0
2018-12-15T01:20:38.009Z,0
2018-12-15T01:21:40.028Z,0
2018-12-15T01:22:42.399Z,0
2018-12-15T01:23:44.424Z,0
2018-12-15T01:24:46.460Z,0
2018-12-15T01:25:48.480Z,0
2018-12-15T01:26:50.502Z,0
2018-12-15T01:27:52.533Z,0
2018-12-15T01:28:54.553Z,0
2018-12-15T01:29:56.865Z,0
2018-12-15T01:30:58.874Z,0
2018-12-15T01:32:00.900Z,0
2018-12-15T01:33:03.215Z,0
2018-12-15T01:34:05.237Z,0
2018-12-15T01:35:07.259Z,0
2018-12-15T01:36:09.277Z,0
2018-12-15T01:37:11.313Z,0
2018-12-15T01:38:13.613Z,0
2018-12-15T01:39:15.652Z,0
2018-12-15T01:40:17.674Z,0
2018-12-15T01:41:19.686Z,0
2018-12-15T01:42:21.719Z,0
2018-12-15T01:43:23.737Z,0
2018-12-15T01:44:25.757Z,0
2018-12-15T01:45:27.778Z,0
2018-12-15T01:46:30.117Z,0
2018-12-15T01:47:32.161Z,0
2018-12-15T01:48:34.182Z,0
2018-12-15T01:49:36.234Z,0
2018-12-15T01:50:38.270Z,0
2018-12-15T01:51:40.291Z,0
2018-12-15T01:52:42.341Z,0
2018-12-15T01:53:44.372Z,0
2018-12-15T01:54:46.382Z,0
2018-12-15T01:55:48.442Z,0
2018-12-15T01:56:50.468Z,0
2018-12-15T01:57:52.878Z,0
2018-12-15T01:58:54.893Z,0
2018-12-15T01:59:56.928Z,0
2018-12-15T02:00:59.013Z,0
2018-12-15T02:02:01.712Z,0
2018-12-15T02:03:03.754Z,0
2018-12-15T02:04:05.765Z,0
2018-12-15T02:05:08.064Z,0
2018-12-15T02:06:10.101Z,0
2018-12-15T02:07:12.124Z,0
2018-12-15T02:08:14.137Z,0
2018-12-15T02:09:16.160Z,0
2018-12-15T02:10:18.176Z,0
2018-12-15T02:11:20.776Z,0
2018-12-15T02:12:22.820Z,0
2018-12-15T02:13:25.137Z,0
2018-12-15T02:14:27.152Z,0
2018-12-15T02:15:29.193Z,0
2018-12-15T02:16:31.212Z,0
2018-12-15T02:17:33.712Z,0
2018-12-15T02:18:35.955Z,0
2018-12-15T02:19:37.957Z,0
2018-12-15T02:20:39.982Z,0
2018-12-15T02:21:42.005Z,0
2018-12-15T02:22:44.034Z,0
2018-12-15T02:23:46.054Z,0
2018-12-15T02:24:48.069Z,0
2018-12-15T02:25:50.088Z,0
2018-12-15T02:26:52.111Z,0
2018-12-15T02:27:54.117Z,0
2018-12-15T02:28:56.155Z,0
2018-12-15T02:29:58.176Z,0
2018-12-15T02:31:00.207Z,0
2018-12-15T02:32:02.523Z,0
2018-12-15T02:33:04.552Z,0
2018-12-15T02:34:06.573Z,0
2018-12-15T02:35:08.592Z,0
2018-12-15T02:36:10.632Z,0
2018-12-15T02:37:12.948Z,0
2018-12-15T02:38:14.973Z,0
2018-12-15T02:39:17.004Z,0
2018-12-15T02:40:19.033Z,0
2018-12-15T02:41:21.344Z,0
2018-12-15T02:42:23.654Z,0
2018-12-15T02:43:25.674Z,0
2018-12-15T02:44:27.690Z,0
2018-12-15T02:45:30.113Z,0
2018-12-15T02:46:32.152Z,0
2018-12-15T02:47:41.126Z,0
2018-12-15T02:48:43.979Z,0
2018-12-15T02:49:46.289Z,0
2018-12-15T02:50:48.312Z,0
2018-12-15T02:51:50.347Z,0
2018-12-15T02:52:52.355Z,0
2018-12-15T02:53:54.392Z,0
2018-12-15T02:54:56.697Z,0
2018-12-15T02:55:58.788Z,0
2018-12-15T02:57:00.820Z,0
2018-12-15T02:58:02.902Z,0
2018-12-15T02:59:05.535Z,0
2018-12-15T03:00:07.603Z,0
2018-12-15T03:01:09.627Z,0
2018-12-15T03:02:11.947Z,0
2018-12-15T03:03:13.964Z,0
2018-12-15T03:04:16.003Z,0
2018-12-15T03:05:18.043Z,0
2018-12-15T03:06:20.084Z,0
2018-12-15T03:07:22.114Z,0
2018-12-15T03:08:24.132Z,0
2018-12-15T03:09:26.275Z,0
2018-12-15T03:10:28.291Z,0
2018-12-15T03:11:30.600Z,0
2018-12-15T03:12:33.198Z,0
2018-12-15T03:13:35.221Z,0
2018-12-15T03:14:37.620Z,0
2018-12-15T03:15:39.648Z,0
2018-12-15T03:16:41.664Z,0
2018-12-15T03:17:48.824Z,0
2018-12-15T03:18:51.114Z,0
2018-12-15T03:19:53.450Z,0
2018-12-15T03:20:56.045Z,0
2018-12-15T03:21:58.078Z,0
2018-12-15T03:23:00.552Z,0
2018-12-15T03:24:02.573Z,0
2018-12-15T03:25:05.254Z,0
2018-12-15T03:26:07.268Z,0
2018-12-15T03:27:09.298Z,0
2018-12-15T03:28:11.330Z,0
2018-12-15T03:29:13.369Z,0
2018-12-15T03:30:16.242Z,0
2018-12-15T03:31:18.715Z,0
2018-12-15T03:32:21.029Z,0
2018-12-15T03:33:24.028Z,0
2018-12-15T03:34:26.067Z,0
2018-12-15T03:35:28.075Z,0
2018-12-15T03:36:30.380Z,0
2018-12-15T03:37:32.977Z,0
2018-12-15T03:38:35.302Z,0
2018-12-15T03:39:37.336Z,0
2018-12-15T03:40:39.377Z,0
2018-12-15T03:41:41.409Z,0
2018-12-15T03:42:43.802Z,0
2018-12-15T03:43:45.846Z,0
2018-12-15T03:44:47.879Z,0
2018-12-15T03:45:50.178Z,0
2018-12-15T03:46:52.223Z,0
2018-12-15T03:47:56.307Z,0
2018-12-15T03:48:58.799Z,0
2018-12-15T03:50:01.141Z,0
2018-12-15T03:51:03.490Z,0
2018-12-15T03:52:05.900Z,0
2018-12-15T03:53:07.923Z,0
2018-12-15T03:54:09.954Z,0
2018-12-15T03:55:11.964Z,0
2018-12-15T03:56:13.997Z,0
2018-12-15T03:57:16.466Z,0
2018-12-15T03:58:18.778Z,0
2018-12-15T03:59:21.138Z,0
2018-12-15T04:00:24.104Z,0
2018-12-15T04:01:26.133Z,0
2018-12-15T04:02:28.155Z,0
2018-12-15T04:03:30.192Z,0
2018-12-15T04:04:32.204Z,0
2018-12-15T04:05:34.692Z,0
2018-12-15T04:06:36.731Z,0
2018-12-15T04:07:39.035Z,0
2018-12-15T04:08:41.069Z,0
2018-12-15T04:09:43.390Z,0
2018-12-15T04:10:45.426Z,0
2018-12-15T04:11:48.020Z,0
2018-12-15T04:12:50.058Z,0
2018-12-15T04:13:52.086Z,0
2018-12-15T04:14:54.103Z,0
2018-12-15T04:15:56.457Z,0
2018-12-15T04:16:58.475Z,0
2018-12-15T04:18:03.766Z,0
2018-12-15T04:19:05.909Z,0
2018-12-15T04:20:08.217Z,0
2018-12-15T04:21:10.535Z,0
2018-12-15T04:22:12.985Z,0
2018-12-15T04:23:15.017Z,0
2018-12-15T04:24:17.084Z,0
2018-12-15T04:25:19.093Z,0
2018-12-15T04:26:21.116Z,0
2018-12-15T04:27:23.138Z,0
2018-12-15T04:28:25.151Z,0
2018-12-15T04:29:27.465Z,0
2018-12-15T04:30:29.776Z,0
2018-12-15T04:31:31.787Z,0
2018-12-15T04:32:33.829Z,0
2018-12-15T04:33:36.257Z,0
2018-12-15T04:34:38.284Z,0
2018-12-15T04:35:40.311Z,0
2018-12-15T04:36:42.347Z,0
2018-12-15T04:37:44.365Z,0
2018-12-15T04:38:46.398Z,0
2018-12-15T04:39:48.438Z,0
2018-12-15T04:40:50.834Z,0
2018-12-15T04:41:53.178Z,0
2018-12-15T04:42:55.513Z,0
2018-12-15T04:43:57.545Z,0
2018-12-15T04:45:00.138Z,0
2018-12-15T04:46:02.169Z,0
2018-12-15T04:47:04.572Z,0
2018-12-15T04:48:10.966Z,0
2018-12-15T04:49:13.527Z,0
2018-12-15T04:50:15.540Z,0
2018-12-15T04:51:18.526Z,0
2018-12-15T04:52:20.560Z,0
2018-12-15T04:53:22.681Z,0
2018-12-15T04:54:24.978Z,0
2018-12-15T04:55:27.007Z,0
2018-12-15T04:56:29.034Z,0
2018-12-15T04:57:31.501Z,0
2018-12-15T04:58:33.808Z,0
2018-12-15T04:59:35.833Z,0
2018-12-15T05:00:37.862Z,0
2018-12-15T05:01:39.867Z,0
2018-12-15T05:02:43.898Z,0
2018-12-15T05:03:46.193Z,0
2018-12-15T05:04:48.568Z,0
2018-12-15T05:05:50.675Z,0
2018-12-15T05:06:52.695Z,0
2018-12-15T05:07:54.721Z,0
2018-12-15T05:08:56.748Z,0
2018-12-15T05:09:59.466Z,0
2018-12-15T05:11:01.517Z,0
2018-12-15T05:12:03.542Z,0
2018-12-15T05:13:05.870Z,0
2018-12-15T05:14:07.881Z,0
2018-12-15T05:15:10.680Z,0
2018-12-15T05:16:12.695Z,0
2018-12-15T05:17:14.729Z,0
2018-12-15T05:18:18.226Z,0
2018-12-15T05:19:21.136Z,0
2018-12-15T05:20:23.158Z,0
2018-12-15T05:21:25.234Z,0
2018-12-15T05:22:27.290Z,0
2018-12-15T05:23:29.301Z,0
2018-12-15T05:24:31.324Z,0
2018-12-15T05:25:33.649Z,0
2018-12-15T05:26:35.679Z,0
2018-12-15T05:27:37.699Z,0
2018-12-15T05:28:39.719Z,0
2018-12-15T05:29:41.734Z,0
2018-12-15T05:30:43.766Z,0
2018-12-15T05:31:45.796Z,0
2018-12-15T05:32:47.825Z,0
2018-12-15T05:33:50.245Z,0
2018-12-15T05:34:52.253Z,0
2018-12-15T05:35:54.287Z,0
2018-12-15T05:36:56.318Z,0
2018-12-15T05:37:59.566Z,0
2018-12-15T05:39:01.619Z,0
2018-12-15T05:40:03.646Z,0
2018-12-15T05:41:05.668Z,0
2018-12-15T05:42:08.065Z,0
2018-12-15T05:43:10.099Z,0
2018-12-15T05:44:12.117Z,0
2018-12-15T05:45:14.141Z,0
2018-12-15T05:46:16.217Z,0
2018-12-15T05:47:18.227Z,0
2018-12-15T05:48:25.049Z,0
2018-12-15T05:49:27.753Z,0
2018-12-15T05:50:29.781Z,0
2018-12-15T05:51:31.789Z,0
2018-12-15T05:52:33.821Z,0
2018-12-15T05:53:35.841Z,0
2018-12-15T05:54:37.859Z,0
2018-12-15T05:55:39.893Z,0
2018-12-15T05:56:41.906Z,0
2018-12-15T05:57:43.941Z,0
2018-12-15T05:58:45.974Z,0
2018-12-15T05:59:47.994Z,0
2018-12-15T06:00:50.042Z,0
2018-12-15T06:01:52.084Z,0
2018-12-15T06:02:54.390Z,0
2018-12-15T06:03:56.418Z,0
2018-12-15T06:04:58.457Z,0
2018-12-15T06:06:00.472Z,0
2018-12-15T06:07:02.765Z,0
2018-12-15T06:08:04.796Z,0
2018-12-15T06:09:06.818Z,0
2018-12-15T06:10:09.116Z,0
2018-12-15T06:11:11.154Z,0
2018-12-15T06:12:13.440Z,0
2018-12-15T06:13:15.474Z,0
2018-12-15T06:14:17.499Z,0
2018-12-15T06:15:19.540Z,0
2018-12-15T06:16:21.550Z,0
2018-12-15T06:17:23.578Z,0
2018-12-15T06:18:31.431Z,0
2018-12-15T06:19:33.806Z,0
2018-12-15T06:20:35.843Z,0
2018-12-15T06:21:37.855Z,0
2018-12-15T06:22:39.879Z,0
2018-12-15T06:23:41.897Z,0
2018-12-15T06:24:43.933Z,0
2018-12-15T06:25:45.967Z,0
2018-12-15T06:26:47.984Z,0
2018-12-15T06:27:50.015Z,0
2018-12-15T06:28:52.020Z,0
2018-12-15T06:29:54.993Z,0
2018-12-15T06:30:57.016Z,0
2018-12-15T06:31:59.029Z,0
2018-12-15T06:33:01.055Z,0
2018-12-15T06:34:03.366Z,0
2018-12-15T06:35:05.389Z,0
2018-12-15T06:36:07.414Z,0
2018-12-15T06:37:09.437Z,0
2018-12-15T06:38:11.449Z,0
2018-12-15T06:39:13.467Z,0
2018-12-15T06:40:15.495Z,0
2018-12-15T06:41:17.509Z,0
2018-12-15T06:42:19.538Z,0
2018-12-15T06:43:21.840Z,0
2018-12-15T06:44:23.901Z,0
2018-12-15T06:45:26.325Z,0
2018-12-15T06:46:28.336Z,0
2018-12-15T06:47:30.360Z,4
2018-12-15T06:48:37.964Z,0
2018-12-15T06:49:40.526Z,0
2018-12-15T06:50:42.558Z,4
2018-12-15T06:51:44.577Z,4
2018-12-15T06:52:46.595Z,4
2018-12-15T06:53:48.634Z,4
2018-12-15T06:54:50.642Z,4
2018-12-15T06:55:52.733Z,8
2018-12-15T06:56:54.754Z,8
2018-12-15T06:57:56.797Z,8
2018-12-15T06:58:58.865Z,12
2018-12-15T07:00:00.917Z,16
2018-12-15T07:01:02.947Z,12
2018-12-15T07:02:05.240Z,16
2018-12-15T07:03:07.299Z,20
2018-12-15T07:04:09.370Z,24
2018-12-15T07:05:11.389Z,28
2018-12-15T07:06:13.437Z,32
2018-12-15T07:07:15.468Z,32
2018-12-15T07:08:17.491Z,40
2018-12-15T07:09:19.522Z,44
2018-12-15T07:10:21.547Z,52
2018-12-15T07:11:23.621Z,60
2018-12-15T07:12:25.640Z,68
2018-12-15T07:13:27.726Z,76
2018-12-15T07:14:29.734Z,84
2018-12-15T07:15:31.763Z,88
2018-12-15T07:16:33.785Z,100
2018-12-15T07:17:37.230Z,112
2018-12-15T07:18:44.717Z,124
2018-12-15T07:19:46.955Z,136
2018-12-15T07:20:49.363Z,152
2018-12-15T07:21:51.431Z,164
2018-12-15T07:22:53.745Z,184
2018-12-15T07:23:55.766Z,196
2018-12-15T07:24:57.809Z,216
2018-12-15T07:25:59.913Z,236
2018-12-15T07:27:01.938Z,260
2018-12-15T07:28:04.235Z,276
2018-12-15T07:29:06.550Z,300
2018-12-15T07:30:08.846Z,324
2018-12-15T07:31:10.875Z,348
2018-12-15T07:32:12.895Z,372
2018-12-15T07:33:15.199Z,400
2018-12-15T07:34:17.232Z,424
2018-12-15T07:35:19.526Z,456
2018-12-15T07:36:21.555Z,480
2018-12-15T07:37:23.576Z,508
2018-12-15T07:38:25.592Z,536
2018-12-15T07:39:28.522Z,568
2018-12-15T07:40:30.651Z,588
2018-12-15T07:41:32.676Z,612
2018-12-15T07:42:34.705Z,636
2018-12-15T07:43:37.121Z,660
2018-12-15T07:44:39.132Z,692
2018-12-15T07:45:41.152Z,724
2018-12-15T07:46:43.467Z,752
2018-12-15T07:47:45.558Z,776
2018-12-15T07:48:51.266Z,808
2018-12-15T07:49:53.894Z,848
2018-12-15T07:50:55.906Z,884
2018-12-15T07:51:58.266Z,912
2018-12-15T07:53:00.338Z,932
2018-12-15T07:54:02.362Z,948
2018-12-15T07:55:04.376Z,964
2018-12-15T07:56:06.406Z,992
2018-12-15T07:57:08.416Z,1036
2018-12-15T07:58:10.435Z,1084
2018-12-15T07:59:12.462Z,1136
2018-12-15T08:00:14.469Z,1184
2018-12-15T08:01:16.502Z,1232
2018-12-15T08:02:18.534Z,1284
2018-12-15T08:03:20.860Z,1336
2018-12-15T08:04:22.870Z,1392
2018-12-15T08:05:24.899Z,1444
2018-12-15T08:06:26.928Z,1492
2018-12-15T08:07:29.339Z,1548
2018-12-15T08:08:31.351Z,1620
2018-12-15T08:09:33.390Z,1700
2018-12-15T08:10:35.416Z,1756
2018-12-15T08:11:37.707Z,1816
2018-12-15T08:12:39.730Z,1892
2018-12-15T08:13:41.756Z,1956
2018-12-15T08:14:43.789Z,2032
2018-12-15T08:15:46.108Z,2112
2018-12-15T08:16:48.150Z,2216
2018-12-15T08:17:50.165Z,2300
2018-12-15T08:18:57.967Z,2368
2018-12-15T08:20:00.144Z,2420
2018-12-15T08:21:02.157Z,2460
2018-12-15T08:22:04.183Z,2504
2018-12-15T08:23:06.217Z,2560
2018-12-15T08:24:08.238Z,2628
2018-12-15T08:25:10.284Z,2704
2018-12-15T08:26:12.310Z,2780
2018-12-15T08:27:14.336Z,2872
2018-12-15T08:28:16.355Z,2964
2018-12-15T08:29:18.389Z,3024
2018-12-15T08:30:20.406Z,3068
2018-12-15T08:31:22.431Z,3124
2018-12-15T08:32:24.783Z,3192
2018-12-15T08:33:26.786Z,3296
2018-12-15T08:34:28.828Z,3384
2018-12-15T08:35:30.856Z,3444
2018-12-15T08:36:32.886Z,3496
2018-12-15T08:37:34.898Z,3544
2018-12-15T08:38:37.202Z,3640
2018-12-15T08:39:39.226Z,3776
2018-12-15T08:40:41.303Z,3892
2018-12-15T08:41:44.908Z,3964
2018-12-15T08:42:46.933Z,4040
2018-12-15T08:43:48.954Z,4156
2018-12-15T08:44:51.362Z,4268
2018-12-15T08:45:53.383Z,4364
2018-12-15T08:46:55.405Z,4468
2018-12-15T08:47:57.426Z,4612
2018-12-15T08:49:04.570Z,4784
2018-12-15T08:50:06.773Z,5016
2018-12-15T08:51:09.197Z,5184
2018-12-15T08:52:11.222Z,5320
2018-12-15T08:53:13.247Z,5408
2018-12-15T08:54:15.282Z,5456
2018-12-15T08:55:17.391Z,5432
2018-12-15T08:56:19.445Z,5528
2018-12-15T08:57:21.756Z,5764
2018-12-15T08:58:23.766Z,6132
2018-12-15T08:59:25.797Z,6572
2018-12-15T09:00:27.818Z,7620
2018-12-15T09:01:29.850Z,6972
2018-12-15T09:02:32.140Z,7320
2018-12-15T09:03:34.166Z,7756
2018-12-15T09:04:36.191Z,8216
2018-12-15T09:05:38.208Z,8456
2018-12-15T09:06:40.297Z,8740
2018-12-15T09:07:42.315Z,8932
2018-12-15T09:08:44.333Z,9336
2018-12-15T09:09:46.632Z,9288
2018-12-15T09:10:48.943Z,9508
2018-12-15T09:11:50.962Z,9632
2018-12-15T09:12:52.988Z,10716
2018-12-15T09:13:55.014Z,13012
2018-12-15T09:14:57.019Z,14140
2018-12-15T09:15:59.334Z,13100
2018-12-15T09:17:01.353Z,9856
2018-12-15T09:18:03.658Z,10308
2018-12-15T09:19:10.970Z,10328
2018-12-15T09:20:13.773Z,19840
2018-12-15T09:21:15.806Z,20480
2018-12-15T09:22:17.824Z,24672
2018-12-15T09:23:19.868Z,24736
2018-12-15T09:24:34.637Z,23392
2018-12-15T09:25:36.668Z,22016
2018-12-15T09:26:38.697Z,22496
2018-12-15T09:27:40.729Z,21728
2018-12-15T09:28:42.746Z,22304
2018-12-15T09:29:44.770Z,22848
2018-12-15T09:30:47.188Z,24064
2018-12-15T09:31:49.204Z,24704
2018-12-15T09:32:51.515Z,25120
2018-12-15T09:33:53.577Z,25664
2018-12-15T09:34:55.606Z,25856
2018-12-15T09:35:57.620Z,25856
2018-12-15T09:36:59.649Z,26752
2018-12-15T09:38:01.690Z,27104
2018-12-15T09:39:03.710Z,27232
2018-12-15T09:40:05.753Z,27904
2018-12-15T09:41:07.765Z,28480
2018-12-15T09:42:09.788Z,29920
2018-12-15T09:43:11.842Z,30336
2018-12-15T09:44:13.892Z,29120
2018-12-15T09:45:15.915Z,29440
2018-12-15T09:46:17.952Z,28832
2018-12-15T09:47:19.988Z,28800
2018-12-15T09:48:21.998Z,28896
2018-12-15T09:49:24.037Z,28992
2018-12-15T09:50:26.071Z,30080
2018-12-15T09:51:28.095Z,30400
2018-12-15T09:52:30.124Z,30176
2018-12-15T09:53:32.212Z,30560
2018-12-15T09:54:34.239Z,29440
2018-12-15T09:55:36.274Z,31968
2018-12-15T09:56:38.311Z,32160
2018-12-15T09:57:40.333Z,31264
2018-12-15T09:58:42.363Z,31616
2018-12-15T09:59:44.387Z,31104
2018-12-15T10:00:46.433Z,31488
2018-12-15T10:01:49.030Z,32032
2018-12-15T10:02:51.055Z,32352
2018-12-15T10:03:53.112Z,32800
2018-12-15T10:04:57.276Z,32416
2018-12-15T10:05:59.335Z,32640
2018-12-15T10:07:01.362Z,32320
2018-12-15T10:08:03.401Z,33280
2018-12-15T10:09:05.422Z,32192
2018-12-15T10:10:07.464Z,26784
2018-12-15T10:11:10.191Z,20896
2018-12-15T10:12:14.271Z,17600
2018-12-15T10:13:20.522Z,19904
2018-12-15T10:14:22.821Z,19392
2018-12-15T10:15:25.149Z,12100
2018-12-15T10:16:27.237Z,10456
2018-12-15T10:17:29.288Z,9260
2018-12-15T10:18:31.886Z,8340
2018-12-15T10:19:34.672Z,7708
2018-12-15T10:20:41.807Z,7160
2018-12-15T10:21:43.823Z,6708
2018-12-15T10:22:45.869Z,6284
2018-12-15T10:23:47.890Z,5856
2018-12-15T10:24:51.135Z,5480
2018-12-15T10:25:57.818Z,5108
2018-12-15T10:27:04.648Z,4744
2018-12-15T10:28:13.223Z,4536
2018-12-15T10:29:20.936Z,4372
2018-12-15T10:30:27.695Z,4224
2018-12-15T10:31:34.693Z,4060
2018-12-15T10:32:43.076Z,3992
2018-12-15T10:33:49.878Z,3952
2018-12-15T10:34:53.821Z,3876
2018-12-15T10:35:55.853Z,3840
2018-12-15T10:36:57.884Z,3880
2018-12-15T10:37:59.910Z,3892
2018-12-15T10:39:02.208Z,3908
2018-12-15T10:40:04.240Z,3924
2018-12-15T10:41:06.933Z,3960
2018-12-15T10:42:08.967Z,3980
2018-12-15T10:43:10.997Z,3984
2018-12-15T10:44:13.038Z,3948
2018-12-15T10:45:15.069Z,3924
2018-12-15T10:46:17.082Z,3900
2018-12-15T10:47:19.149Z,3900
2018-12-15T10:48:21.189Z,3900
2018-12-15T10:49:30.618Z,3936
2018-12-15T10:50:32.838Z,4064
2018-12-15T10:51:34.939Z,4144
2018-12-15T10:52:37.102Z,4172
2018-12-15T10:53:39.140Z,4148
2018-12-15T10:54:41.508Z,4100
2018-12-15T10:55:43.521Z,4012
2018-12-15T10:56:45.561Z,4004
2018-12-15T10:57:47.589Z,4004
2018-12-15T10:58:49.996Z,3992
2018-12-15T10:59:52.022Z,3928
2018-12-15T11:00:54.174Z,3904
2018-12-15T11:01:56.216Z,3924
2018-12-15T11:02:58.249Z,3908
2018-12-15T11:04:00.807Z,3912
2018-12-15T11:05:03.302Z,3956
2018-12-15T11:06:05.898Z,3996
2018-12-15T11:07:08.357Z,3940
2018-12-15T11:08:18.173Z,3960
2018-12-15T11:09:21.259Z,3948
2018-12-15T11:10:23.619Z,3948
2018-12-15T11:11:28.863Z,3932
2018-12-15T11:12:38.436Z,3960
2018-12-15T11:13:45.548Z,3940
2018-12-15T11:14:48.476Z,3944
2018-12-15T11:15:56.933Z,4044
2018-12-15T11:16:58.992Z,4084
2018-12-15T11:18:02.094Z,4136
2018-12-15T11:19:06.312Z,4268
2018-12-15T11:20:13.159Z,4340
2018-12-15T11:21:15.854Z,4308
2018-12-15T11:22:18.863Z,4224
2018-12-15T11:23:21.211Z,4312
2018-12-15T11:24:23.253Z,4508
2018-12-15T11:25:25.271Z,4512
2018-12-15T11:26:27.311Z,4508
2018-12-15T11:27:29.676Z,4608
2018-12-15T11:28:31.697Z,4680
2018-12-15T11:29:33.740Z,4692
2018-12-15T11:30:36.031Z,4740
2018-12-15T11:31:38.054Z,4616
2018-12-15T11:32:40.086Z,4592
2018-12-15T11:33:42.105Z,4624
2018-12-15T11:34:44.127Z,4784
2018-12-15T11:35:46.219Z,4920
2018-12-15T11:36:48.241Z,4912
2018-12-15T11:37:50.258Z,4748
2018-12-15T11:38:52.291Z,4756
2018-12-15T11:39:55.146Z,4772
2018-12-15T11:40:57.318Z,4776
2018-12-15T11:41:59.408Z,4744
2018-12-15T11:43:01.447Z,4760
2018-12-15T11:44:03.745Z,4800
2018-12-15T11:45:05.781Z,4756
2018-12-15T11:46:07.786Z,4956
2018-12-15T11:47:09.814Z,5068
2018-12-15T11:48:13.274Z,5068
2018-12-15T11:49:15.459Z,5024
2018-12-15T11:50:17.473Z,4984
2018-12-15T11:51:19.527Z,4832
2018-12-15T11:52:21.831Z,4712
2018-12-15T11:53:24.135Z,4608
2018-12-15T11:54:26.153Z,4592
2018-12-15T11:55:28.568Z,4564
2018-12-15T11:56:30.588Z,4576
2018-12-15T11:57:32.611Z,4648
2018-12-15T11:58:34.620Z,4632
2018-12-15T11:59:36.655Z,4604
2018-12-15T12:00:38.678Z,4716
2018-12-15T12:01:41.080Z,4688
2018-12-15T12:02:43.116Z,4592
2018-12-15T12:03:45.132Z,4548
2018-12-15T12:04:47.158Z,4596
2018-12-15T12:05:49.189Z,4580
2018-12-15T12:06:51.265Z,4512
2018-12-15T12:07:53.672Z,4504
2018-12-15T12:08:55.746Z,4564
2018-12-15T12:09:57.761Z,4600
2018-12-15T12:10:59.777Z,4576
2018-12-15T12:12:01.804Z,4512
2018-12-15T12:13:03.835Z,4564
2018-12-15T12:14:05.908Z,4768
2018-12-15T12:15:07.957Z,4856
2018-12-15T12:16:09.981Z,4772
2018-12-15T12:17:12.007Z,4756
2018-12-15T12:18:14.033Z,4748
2018-12-15T12:19:16.036Z,4648
2018-12-15T12:20:18.061Z,4580
2018-12-15T12:21:20.143Z,4548
2018-12-15T12:22:22.175Z,4480
2018-12-15T12:23:24.191Z,4356
2018-12-15T12:24:26.216Z,4344
2018-12-15T12:25:28.243Z,4396
2018-12-15T12:26:30.257Z,4416
2018-12-15T12:27:32.294Z,4476
2018-12-15T12:28:34.312Z,4508
2018-12-15T12:29:36.720Z,4456
2018-12-15T12:30:38.743Z,4460
2018-12-15T12:31:40.768Z,4504
2018-12-15T12:32:42.784Z,4420
2018-12-15T12:33:44.880Z,4388
2018-12-15T12:34:46.904Z,4416
2018-12-15T12:35:48.946Z,4360
2018-12-15T12:36:50.958Z,4388
2018-12-15T12:37:53.664Z,4396
2018-12-15T12:38:55.688Z,4360
2018-12-15T12:39:57.713Z,4360
2018-12-15T12:40:59.757Z,4416
2018-12-15T12:42:01.778Z,4488
2018-12-15T12:43:03.794Z,4456
2018-12-15T12:44:05.848Z,4296
2018-12-15T12:45:07.880Z,4284
2018-12-15T12:46:09.908Z,4304
2018-12-15T12:47:11.941Z,4224
2018-12-15T12:48:14.539Z,4144
2018-12-15T12:49:16.555Z,3984
2018-12-15T12:50:18.582Z,3848
2018-12-15T12:51:20.619Z,3764
2018-12-15T12:52:23.017Z,3732
2018-12-15T12:53:25.045Z,3744
2018-12-15T12:54:27.070Z,3724
2018-12-15T12:55:29.099Z,3796
2018-12-15T12:56:31.114Z,3832
2018-12-15T12:57:33.142Z,3772
2018-12-15T12:58:35.171Z,3788
2018-12-15T12:59:37.185Z,3764
2018-12-15T13:00:39.236Z,3840
2018-12-15T13:01:41.247Z,3840
2018-12-15T13:02:43.300Z,3880
2018-12-15T13:03:45.324Z,3836
2018-12-15T13:04:47.362Z,3728
2018-12-15T13:05:49.725Z,3696
2018-12-15T13:06:51.748Z,3684
2018-12-15T13:07:53.777Z,3656
2018-12-15T13:08:55.789Z,3656
2018-12-15T13:09:57.811Z,3568
2018-12-15T13:11:00.120Z,3572
2018-12-15T13:12:02.152Z,3532
2018-12-15T13:13:04.844Z,3492
2018-12-15T13:14:06.872Z,3532
2018-12-15T13:15:08.891Z,3516
2018-12-15T13:16:10.906Z,3520
2018-12-15T13:17:12.934Z,3480
2018-12-15T13:18:14.967Z,3452
2018-12-15T13:19:16.986Z,3452
2018-12-15T13:20:19.287Z,3432
2018-12-15T13:21:21.323Z,3308
2018-12-15T13:22:23.338Z,3196
2018-12-15T13:23:25.357Z,3152
2018-12-15T13:24:27.388Z,3116
2018-12-15T13:25:29.393Z,3116
2018-12-15T13:26:31.426Z,3076
2018-12-15T13:27:33.449Z,2944
2018-12-15T13:28:35.766Z,2920
2018-12-15T13:29:37.780Z,2924
2018-12-15T13:30:39.802Z,2884
2018-12-15T13:31:42.222Z,2876
2018-12-15T13:32:44.517Z,2868
2018-12-15T13:33:46.562Z,2880
2018-12-15T13:34:48.575Z,2876
2018-12-15T13:35:50.600Z,2828
2018-12-15T13:36:52.629Z,2828
2018-12-15T13:37:54.665Z,2820
2018-12-15T13:38:56.679Z,2776
2018-12-15T13:39:58.699Z,2720
2018-12-15T13:41:00.732Z,2680
2018-12-15T13:42:02.741Z,2648
2018-12-15T13:43:04.782Z,2636
2018-12-15T13:44:06.800Z,2688
2018-12-15T13:45:08.814Z,2692
2018-12-15T13:46:10.830Z,2644
2018-12-15T13:47:13.478Z,2580
2018-12-15T13:48:15.512Z,2536
2018-12-15T13:49:17.547Z,2540
2018-12-15T13:50:19.879Z,2544
2018-12-15T13:51:22.171Z,2508
2018-12-15T13:52:24.194Z,2472
2018-12-15T13:53:26.226Z,2424
2018-12-15T13:54:30.070Z,2384
2018-12-15T13:55:32.103Z,2288
2018-12-15T13:56:34.131Z,2212
2018-12-15T13:57:36.147Z,2208
2018-12-15T13:58:38.185Z,2172
2018-12-15T13:59:40.203Z,2124
2018-12-15T14:00:42.284Z,2112
2018-12-15T14:01:44.302Z,2080
2018-12-15T14:02:46.340Z,2036
2018-12-15T14:03:48.646Z,1992
2018-12-15T14:04:50.674Z,1964
2018-12-15T14:05:52.699Z,1908
2018-12-15T14:06:54.705Z,1856
2018-12-15T14:07:56.736Z,1820
2018-12-15T14:08:58.760Z,1776
2018-12-15T14:10:00.789Z,1752
2018-12-15T14:11:03.101Z,1724
2018-12-15T14:12:05.699Z,1692
2018-12-15T14:13:07.723Z,1668
2018-12-15T14:14:09.744Z,1632
2018-12-15T14:15:11.785Z,1564
2018-12-15T14:16:13.793Z,1492
2018-12-15T14:17:15.820Z,1424
2018-12-15T14:18:18.236Z,1364
2018-12-15T14:19:20.265Z,1312
2018-12-15T14:20:22.562Z,1288
2018-12-15T14:21:24.593Z,1240
2018-12-15T14:22:26.612Z,1184
2018-12-15T14:23:28.645Z,1128
2018-12-15T14:24:32.195Z,1048
2018-12-15T14:25:34.219Z,972
2018-12-15T14:26:36.246Z,912
2018-12-15T14:27:38.263Z,864
2018-12-15T14:28:40.295Z,812
2018-12-15T14:29:42.338Z,764
2018-12-15T14:30:44.641Z,724
2018-12-15T14:31:46.955Z,696
2018-12-15T14:32:49.086Z,660